createdAt,value
2023-04-15T00:01:00.262Z,2.92
2023-04-15T00:03:27.444Z,3.57
2023-04-15T00:05:54.243Z,3.20
2023-04-15T00:08:20.859Z,3.28
2023-04-15T00:10:47.878Z,3.40
2023-04-15T00:13:15.311Z,3.40
2023-04-15T00:15:42.678Z,2.77
2023-04-15T00:18:09.439Z,3.00
2023-04-15T00:20:36.017Z,3.20
2023-04-15T00:23:04.317Z,3.40
2023-04-15T00:25:31.320Z,3.33
2023-04-15T00:27:58.289Z,4.27
2023-04-15T00:30:25.730Z,3.60
2023-04-15T00:32:52.715Z,3.28
2023-04-15T00:35:19.260Z,3.47
2023-04-15T00:37:46.378Z,3.42
2023-04-15T00:40:13.762Z,3.17
2023-04-15T00:42:40.793Z,3.53
2023-04-15T00:45:08.986Z,3.08
2023-04-15T00:47:37.791Z,3.05
2023-04-15T00:50:05.122Z,3.30
2023-04-15T00:52:32.120Z,3.30
2023-04-15T00:54:59.622Z,3.20
2023-04-15T00:57:27.228Z,3.10
2023-04-15T00:59:55.949Z,3.10
2023-04-15T01:02:23.407Z,3.17
2023-04-15T01:04:50.818Z,3.57
2023-04-15T01:07:17.459Z,3.10
2023-04-15T01:09:44.145Z,3.17
2023-04-15T01:12:12.917Z,3.45
2023-04-15T01:14:39.576Z,3.00
2023-04-15T01:17:06.087Z,2.93
2023-04-15T01:19:33.009Z,2.85
2023-04-15T01:21:59.617Z,3.03
2023-04-15T01:24:28.218Z,3.15
2023-04-15T01:26:54.915Z,2.92
2023-04-15T01:29:21.642Z,3.40
2023-04-15T01:31:53.059Z,3.17
2023-04-15T01:34:19.652Z,3.38
2023-04-15T01:36:46.352Z,3.33
2023-04-15T01:39:13.486Z,3.20
2023-04-15T01:41:40.926Z,3.47
2023-04-15T01:44:08.075Z,3.30
2023-04-15T01:46:36.102Z,3.25
2023-04-15T01:49:02.814Z,3.38
2023-04-15T01:51:29.454Z,3.10
2023-04-15T01:53:58.940Z,3.13
2023-04-15T01:56:25.518Z,3.28
2023-04-15T01:58:52.473Z,3.70
2023-04-15T02:01:22.307Z,3.28
2023-04-15T02:03:49.148Z,3.15
2023-04-15T02:06:16.011Z,3.13
2023-04-15T02:08:42.568Z,3.83
2023-04-15T02:11:09.360Z,3.35
2023-04-15T02:13:36.345Z,3.03
2023-04-15T02:16:03.572Z,3.50
2023-04-15T02:18:30.551Z,3.50
2023-04-15T02:20:58.485Z,3.58
2023-04-15T02:23:25.436Z,3.40
2023-04-15T02:25:53.305Z,3.47
2023-04-15T02:28:21.028Z,3.25
2023-04-15T02:30:50.782Z,3.30
2023-04-15T02:33:17.509Z,3.50
2023-04-15T02:35:45.387Z,3.40
2023-04-15T02:38:12.173Z,3.38
2023-04-15T02:40:38.720Z,3.08
2023-04-15T02:43:07.159Z,3.27
2023-04-15T02:45:33.941Z,3.60
2023-04-15T02:48:03.962Z,3.40
2023-04-15T02:50:31.692Z,3.33
2023-04-15T02:52:58.161Z,3.38
2023-04-15T02:55:24.691Z,2.90
2023-04-15T02:57:51.434Z,2.50
2023-04-15T03:00:18.092Z,3.30
2023-04-15T03:02:46.196Z,2.58
2023-04-15T03:05:14.407Z,3.03
2023-04-15T03:07:41.061Z,2.40
2023-04-15T03:10:08.715Z,2.85
2023-04-15T03:12:35.267Z,2.70
2023-04-15T03:15:02.159Z,2.88
2023-04-15T03:17:28.693Z,3.25
2023-04-15T03:19:55.422Z,2.97
2023-04-15T03:22:21.975Z,3.42
2023-04-15T03:24:48.580Z,3.10
2023-04-15T03:27:15.093Z,3.58
2023-04-15T03:29:41.590Z,3.50
2023-04-15T03:32:08.049Z,3.50
2023-04-15T03:34:34.514Z,3.58
2023-04-15T03:37:01.069Z,3.20
2023-04-15T03:39:27.554Z,3.00
2023-04-15T03:41:54.086Z,3.30
2023-04-15T03:44:20.877Z,3.60
2023-04-15T03:46:47.421Z,3.20
2023-04-15T03:49:14.248Z,3.05
2023-04-15T03:51:40.762Z,2.72
2023-04-15T03:54:07.305Z,2.42
2023-04-15T03:56:33.758Z,3.20
2023-04-15T03:59:00.576Z,2.83
2023-04-15T04:01:27.300Z,2.70
2023-04-15T04:03:54.061Z,2.65
2023-04-15T04:06:20.899Z,3.28
2023-04-15T04:08:47.403Z,3.07
2023-04-15T04:11:14.147Z,2.70
2023-04-15T04:13:40.670Z,2.88
2023-04-15T04:16:07.248Z,2.30
2023-04-15T04:18:33.985Z,2.63
2023-04-15T04:21:00.720Z,3.00
2023-04-15T04:23:27.223Z,3.17
2023-04-15T04:25:53.705Z,2.85
2023-04-15T04:28:20.231Z,3.22
2023-04-15T04:30:46.766Z,3.25
2023-04-15T04:33:13.310Z,2.67
2023-04-15T04:35:39.860Z,3.17
2023-04-15T04:38:06.347Z,2.97
2023-04-15T04:40:32.890Z,3.22
2023-04-15T04:42:59.978Z,3.20
2023-04-15T04:45:27.161Z,3.13
2023-04-15T04:47:53.853Z,2.88
2023-04-15T04:50:21.055Z,2.70
2023-04-15T04:52:47.803Z,2.95
2023-04-15T04:55:14.311Z,2.72
2023-04-15T04:57:40.964Z,2.87
2023-04-15T05:00:09.226Z,3.28
2023-04-15T05:02:36.225Z,2.97
2023-04-15T05:05:02.942Z,2.45
2023-04-15T05:07:29.457Z,2.67
2023-04-15T05:09:57.191Z,2.70
2023-04-15T05:12:23.950Z,3.17
2023-04-15T05:14:50.606Z,2.42
2023-04-15T05:17:17.115Z,3.30
2023-04-15T05:19:43.593Z,2.65
2023-04-15T05:22:10.160Z,2.97
2023-04-15T05:24:36.686Z,2.75
2023-04-15T05:27:03.678Z,3.10
2023-04-15T05:29:30.625Z,3.22
2023-04-15T05:31:57.269Z,3.40
2023-04-15T05:34:23.746Z,4.20
2023-04-15T05:36:50.516Z,3.90
2023-04-15T05:39:17.047Z,3.33
2023-04-15T05:41:43.579Z,3.38
2023-04-15T05:44:10.262Z,3.55
2023-04-15T05:46:37.230Z,3.20
2023-04-15T05:49:04.154Z,3.38
2023-04-15T05:51:31.127Z,3.88
2023-04-15T05:53:57.666Z,3.58
2023-04-15T05:56:24.840Z,3.85
2023-04-15T05:58:53.685Z,3.63
2023-04-15T06:01:20.710Z,3.35
2023-04-15T06:03:47.297Z,3.80
2023-04-15T06:06:14.340Z,3.92
2023-04-15T06:08:41.337Z,4.20
2023-04-15T06:11:07.884Z,3.40
2023-04-15T06:13:34.943Z,4.13
2023-04-15T06:16:01.584Z,4.07
2023-04-15T06:18:28.166Z,4.30
2023-04-15T06:20:54.684Z,4.55
2023-04-15T06:23:21.231Z,4.57
2023-04-15T06:25:47.968Z,4.05
2023-04-15T06:28:14.420Z,4.30
2023-04-15T06:30:41.132Z,4.38
2023-04-15T06:33:07.679Z,5.93
2023-04-15T06:35:34.334Z,5.33
2023-04-15T06:38:00.828Z,5.78
2023-04-15T06:40:27.849Z,5.55
2023-04-15T06:42:55.317Z,5.72
2023-04-15T06:45:21.909Z,5.45
2023-04-15T06:47:48.520Z,4.87
2023-04-15T06:50:15.145Z,4.70
2023-04-15T06:52:41.704Z,4.95
2023-04-15T06:55:08.724Z,5.18
2023-04-15T06:57:35.324Z,4.72
2023-04-15T07:00:02.513Z,4.37
2023-04-15T07:02:29.164Z,4.50
2023-04-15T07:04:56.964Z,4.80
2023-04-15T07:07:23.548Z,4.97
2023-04-15T07:09:50.181Z,4.45
2023-04-15T07:12:16.683Z,4.97
2023-04-15T07:14:43.394Z,5.03
2023-04-15T07:17:10.006Z,5.40
2023-04-15T07:19:36.569Z,5.07
2023-04-15T07:22:03.078Z,4.90
2023-04-15T07:24:30.158Z,5.20
2023-04-15T07:26:59.560Z,5.50
2023-04-15T07:29:27.318Z,4.88
2023-04-15T07:31:53.849Z,5.18
2023-04-15T07:34:21.048Z,5.25
2023-04-15T07:36:50.684Z,5.23
2023-04-15T07:39:17.894Z,6.05
2023-04-15T07:41:44.522Z,5.07
2023-04-15T07:44:11.563Z,5.78
2023-04-15T07:46:38.593Z,5.07
2023-04-15T07:49:05.281Z,5.13
2023-04-15T07:51:32.371Z,4.60
2023-04-15T07:53:59.318Z,4.95
2023-04-15T07:56:26.492Z,4.20
2023-04-15T07:58:53.363Z,3.58
2023-04-15T08:01:19.978Z,3.90
2023-04-15T08:03:47.197Z,3.55
2023-04-15T08:06:14.293Z,3.60
2023-04-15T08:08:40.842Z,3.28
2023-04-15T08:11:07.417Z,2.95
2023-04-15T08:13:34.002Z,2.90
2023-04-15T08:16:20.910Z,2.88
2023-04-15T08:18:51.542Z,3.30
2023-04-15T08:21:20.016Z,3.00
2023-04-15T08:23:48.421Z,2.53
2023-04-15T08:26:15.182Z,2.33
2023-04-15T08:28:42.868Z,2.55
2023-04-15T08:31:09.903Z,3.00
2023-04-15T08:33:36.916Z,2.80
2023-04-15T08:36:03.619Z,2.30
2023-04-15T08:38:30.279Z,2.70
2023-04-15T08:41:00.076Z,2.55
2023-04-15T08:43:34.965Z,2.35
2023-04-15T08:46:02.325Z,2.20
2023-04-15T08:48:29.845Z,2.30
2023-04-15T08:50:57.363Z,2.70
2023-04-15T08:53:24.523Z,2.13
2023-04-15T08:55:52.860Z,2.45
2023-04-15T08:58:19.985Z,2.50
2023-04-15T09:00:46.698Z,2.28
2023-04-15T09:03:13.841Z,2.73
2023-04-15T09:05:40.390Z,2.55
2023-04-15T09:08:09.422Z,2.28
2023-04-15T09:10:36.234Z,2.67
2023-04-15T09:13:02.853Z,2.38
2023-04-15T09:15:30.558Z,2.10
2023-04-15T09:17:57.269Z,2.05
2023-04-15T09:20:24.140Z,2.03
2023-04-15T09:22:53.148Z,1.80
2023-04-15T09:25:22.706Z,1.73
2023-04-15T09:27:49.984Z,1.80
2023-04-15T09:30:16.908Z,1.88
2023-04-15T09:33:00.955Z,1.85
2023-04-15T09:35:28.244Z,2.17
2023-04-15T09:38:07.331Z,2.25
2023-04-15T09:40:42.891Z,2.10
2023-04-15T09:43:12.977Z,1.67
2023-04-15T09:45:49.077Z,2.15
2023-04-15T09:48:17.014Z,1.95
2023-04-15T09:50:45.239Z,2.20
2023-04-15T09:53:15.521Z,2.70
2023-04-15T09:55:46.174Z,1.92
2023-04-15T09:58:21.159Z,1.35
2023-04-15T10:00:51.128Z,1.30
2023-04-15T10:03:22.106Z,1.30
2023-04-15T10:05:50.541Z,1.90
2023-04-15T10:08:22.473Z,2.05
2023-04-15T10:10:49.118Z,2.65
2023-04-15T10:13:19.139Z,2.50
2023-04-15T10:15:54.450Z,2.03
2023-04-15T10:18:27.693Z,1.30
2023-04-15T10:20:55.117Z,1.30
2023-04-15T10:23:24.501Z,1.50
2023-04-15T10:25:53.961Z,1.27
2023-04-15T10:28:23.004Z,1.50
2023-04-15T10:30:50.139Z,1.50
2023-04-15T10:33:22.684Z,1.60
2023-04-15T10:35:51.726Z,1.80
2023-04-15T10:38:45.881Z,1.75
2023-04-15T10:41:21.249Z,1.80
2023-04-15T10:44:02.234Z,1.70
2023-04-15T10:46:47.382Z,1.35
2023-04-15T10:49:15.294Z,1.50
2023-04-15T10:52:02.094Z,1.45
2023-04-15T10:54:28.580Z,1.50
2023-04-15T10:57:09.361Z,1.60
2023-04-15T10:59:58.905Z,1.60
2023-04-15T11:02:48.117Z,1.50
2023-04-15T11:05:16.397Z,1.20
2023-04-15T11:07:56.178Z,1.40
2023-04-15T11:10:42.629Z,1.23
2023-04-15T11:13:12.114Z,1.27
2023-04-15T11:15:47.012Z,1.13
2023-04-15T11:18:13.474Z,1.30
2023-04-15T11:20:50.844Z,0.82
2023-04-15T11:23:38.072Z,0.90
2023-04-15T11:26:09.895Z,1.08
2023-04-15T11:28:47.055Z,1.10
2023-04-15T11:31:15.551Z,1.20
2023-04-15T11:34:02.450Z,1.40
2023-04-15T11:36:32.180Z,1.37
2023-04-15T11:38:59.875Z,1.30
2023-04-15T11:41:26.930Z,1.17
2023-04-15T11:43:55.111Z,1.50
2023-04-15T11:46:40.291Z,1.25
2023-04-15T11:49:06.874Z,1.30
2023-04-15T11:51:34.744Z,1.30
2023-04-15T11:54:01.591Z,1.13
2023-04-15T11:56:28.280Z,1.40
2023-04-15T11:59:02.333Z,1.27
2023-04-15T12:01:39.334Z,1.10
2023-04-15T12:04:25.228Z,1.60
2023-04-15T12:06:52.522Z,1.33
2023-04-15T12:09:20.372Z,1.00
2023-04-15T12:11:58.299Z,0.90
2023-04-15T12:14:32.337Z,0.90
2023-04-15T12:17:04.808Z,1.00
2023-04-15T12:19:36.290Z,0.90
2023-04-15T12:22:10.811Z,0.70
2023-04-15T12:24:39.001Z,0.80
2023-04-15T12:27:07.724Z,0.70
2023-04-15T12:29:38.391Z,0.80
2023-04-15T12:32:12.932Z,0.82
2023-04-15T12:34:44.801Z,0.93
2023-04-15T12:37:16.058Z,0.80
2023-04-15T12:39:44.769Z,0.93
2023-04-15T12:42:12.304Z,1.00
2023-04-15T12:44:40.030Z,0.85
2023-04-15T12:47:13.262Z,0.80
2023-04-15T12:49:40.142Z,0.90
2023-04-15T12:52:06.911Z,0.90
2023-04-15T12:54:34.412Z,1.17
2023-04-15T12:57:01.192Z,0.57
2023-04-15T12:59:29.032Z,0.77
2023-04-15T13:01:57.999Z,0.60
2023-04-15T13:04:24.990Z,0.50
2023-04-15T13:06:51.797Z,0.65
2023-04-15T13:09:18.360Z,0.55
2023-04-15T13:11:47.037Z,0.80
2023-04-15T13:14:14.323Z,0.70
2023-04-15T13:16:44.462Z,0.60
2023-04-15T13:19:11.609Z,0.65
2023-04-15T13:21:40.155Z,0.80
2023-04-15T13:24:08.447Z,0.70
2023-04-15T13:26:35.331Z,0.93
2023-04-15T13:29:01.990Z,0.70
2023-04-15T13:31:28.700Z,0.63
2023-04-15T13:33:57.621Z,0.50
2023-04-15T13:36:24.470Z,0.50
2023-04-15T13:38:51.684Z,0.82
2023-04-15T13:41:18.419Z,0.83
2023-04-15T13:43:45.023Z,0.60
2023-04-15T13:46:11.707Z,0.50
2023-04-15T13:48:38.572Z,0.60
2023-04-15T13:51:05.190Z,0.60
2023-04-15T13:53:38.049Z,0.43
2023-04-15T13:56:07.586Z,0.50
2023-04-15T13:58:34.362Z,0.38
2023-04-15T14:01:02.631Z,0.40
2023-04-15T14:03:49.035Z,0.30
2023-04-15T14:06:15.710Z,0.60
2023-04-15T14:08:42.477Z,0.30
2023-04-15T14:11:09.318Z,0.45
2023-04-15T14:13:36.308Z,0.40
2023-04-15T14:16:03.111Z,0.40
2023-04-15T14:18:30.644Z,0.50
2023-04-15T14:20:57.176Z,0.50
2023-04-15T14:23:23.861Z,0.40
2023-04-15T14:25:51.048Z,0.35
2023-04-15T14:28:17.634Z,0.80
2023-04-15T14:30:44.342Z,0.97
2023-04-15T14:33:10.972Z,0.77
2023-04-15T14:35:37.954Z,0.43
2023-04-15T14:38:05.910Z,0.57
2023-04-15T14:40:33.697Z,0.60
2023-04-15T14:43:00.333Z,0.60
2023-04-15T14:45:27.024Z,0.50
2023-04-15T14:47:53.781Z,0.38
2023-04-15T14:50:22.555Z,0.57
2023-04-15T14:52:49.162Z,0.50
2023-04-15T14:55:15.816Z,0.40
2023-04-15T14:57:43.215Z,0.40
2023-04-15T15:00:12.309Z,0.82
2023-04-15T15:02:42.250Z,0.35
2023-04-15T15:05:10.804Z,0.40
2023-04-15T15:07:39.416Z,0.33
2023-04-15T15:10:07.087Z,0.52
2023-04-15T15:12:33.942Z,0.40
2023-04-15T15:15:02.984Z,0.50
2023-04-15T15:17:31.794Z,0.20
2023-04-15T15:19:58.546Z,0.33
2023-04-15T15:22:26.182Z,0.30
2023-04-15T15:24:53.570Z,0.47
2023-04-15T15:27:20.305Z,0.70
2023-04-15T15:29:47.067Z,0.80
2023-04-15T15:32:13.647Z,0.50
2023-04-15T15:34:40.427Z,0.32
2023-04-15T15:37:06.976Z,0.30
2023-04-15T15:39:34.904Z,0.43
2023-04-15T15:42:01.641Z,0.60
2023-04-15T15:44:45.272Z,0.30
2023-04-15T15:47:12.004Z,0.40
2023-04-15T15:49:39.729Z,0.40
2023-04-15T15:52:06.641Z,0.55
2023-04-15T15:54:33.543Z,0.30
2023-04-15T15:57:00.141Z,0.30
2023-04-15T15:59:26.743Z,0.52
2023-04-15T16:01:53.789Z,0.50
2023-04-15T16:04:20.954Z,0.50
2023-04-15T16:06:48.444Z,0.30
2023-04-15T16:09:15.194Z,0.50
2023-04-15T16:12:11.994Z,0.60
2023-04-15T16:14:48.349Z,0.40
2023-04-15T16:17:32.913Z,0.73
2023-04-15T16:20:01.517Z,0.32
2023-04-15T16:25:32.944Z,0.38
2023-04-15T16:28:22.603Z,0.50
2023-04-15T16:31:12.832Z,0.57
2023-04-15T16:33:41.941Z,0.30
2023-04-15T16:36:12.458Z,0.40
2023-04-15T16:38:53.481Z,0.30
2023-04-15T16:41:22.649Z,0.20
2023-04-15T16:44:17.797Z,0.50
2023-04-15T16:46:47.270Z,0.30
2023-04-15T16:49:23.140Z,0.23
2023-04-15T16:52:17.565Z,0.25
2023-04-15T16:54:52.652Z,0.32
2023-04-15T16:58:00.744Z,0.40
2023-04-15T17:00:23.405Z,0.50
2023-04-15T17:02:52.845Z,0.30
2023-04-15T17:05:19.640Z,0.30
2023-04-15T17:07:51.802Z,0.30
2023-04-15T17:10:18.490Z,0.40
2023-04-15T17:12:45.477Z,0.50
2023-04-15T17:15:34.150Z,0.63
2023-04-15T17:18:08.440Z,0.40
2023-04-15T17:23:16.946Z,0.40
2023-04-15T17:25:44.505Z,0.40
2023-04-15T17:28:12.694Z,0.73
2023-04-15T17:30:39.772Z,0.50
2023-04-15T17:33:56.099Z,0.50
2023-04-15T17:36:03.205Z,0.50
2023-04-15T17:38:51.249Z,0.50
2023-04-15T17:41:24.471Z,0.30
2023-04-15T17:43:56.628Z,0.30
2023-04-15T17:46:23.485Z,0.30
2023-04-15T17:48:50.521Z,0.50
2023-04-15T17:51:20.398Z,0.40
2023-04-15T17:53:49.797Z,0.50
2023-04-15T17:56:27.002Z,0.50
2023-04-15T17:59:01.763Z,0.50
2023-04-15T18:01:34.447Z,0.40
2023-04-15T18:04:01.425Z,0.38
2023-04-15T18:06:41.301Z,0.53
2023-04-15T18:09:12.740Z,0.30
2023-04-15T18:11:52.508Z,0.40
2023-04-15T18:14:33.544Z,0.70
2023-04-15T18:17:04.358Z,0.75
2023-04-15T18:19:35.536Z,0.27
2023-04-15T18:22:09.521Z,0.30
2023-04-15T18:24:41.959Z,0.50
2023-04-15T18:27:11.129Z,0.20
2023-04-15T18:29:47.315Z,0.40
2023-04-15T18:32:23.111Z,0.30
2023-04-15T18:34:49.880Z,0.60
2023-04-15T18:37:42.423Z,0.20
2023-04-15T18:40:13.374Z,0.20
2023-04-15T18:42:42.354Z,0.30
2023-04-15T18:45:15.736Z,0.40
2023-04-15T18:48:03.376Z,0.40
2023-04-15T18:50:29.962Z,0.50
2023-04-15T18:53:05.692Z,0.20
2023-04-15T18:55:33.819Z,0.55
2023-04-15T18:58:09.220Z,0.60
2023-04-15T19:00:39.097Z,0.30
2023-04-15T19:03:09.660Z,0.50
2023-04-15T19:05:38.953Z,0.28
2023-04-15T19:08:12.126Z,0.40
2023-04-15T19:13:28.029Z,0.30
2023-04-15T19:16:07.132Z,0.65
2023-04-15T19:18:56.129Z,0.40
2023-04-15T19:21:38.132Z,0.30
2023-04-15T19:24:32.397Z,0.43
2023-04-15T19:27:04.339Z,0.50
2023-04-15T19:29:33.802Z,0.52
2023-04-15T19:32:07.998Z,0.43
2023-04-15T19:34:39.660Z,0.70
2023-04-15T19:37:10.919Z,0.30
2023-04-15T19:39:59.078Z,0.30
2023-04-15T19:43:08.971Z,0.38
2023-04-15T19:45:34.285Z,0.25
2023-04-15T19:48:24.908Z,0.28
2023-04-15T19:51:11.265Z,0.40
2023-04-15T19:53:47.016Z,0.70
2023-04-15T19:56:34.627Z,0.65
2023-04-15T19:59:14.685Z,0.40
2023-04-15T20:01:42.895Z,0.50
2023-04-15T20:04:13.891Z,0.30
2023-04-15T20:06:44.678Z,0.30
2023-04-15T20:09:50.599Z,0.77
2023-04-15T20:12:49.256Z,0.47
2023-04-15T20:15:13.654Z,0.50
2023-04-15T20:18:02.296Z,0.50
2023-04-15T20:21:09.016Z,0.20
2023-04-15T20:23:44.600Z,0.38
2023-04-15T20:26:20.776Z,0.40
2023-04-15T20:29:02.708Z,0.47
2023-04-15T20:32:26.872Z,0.40
2023-04-15T20:35:31.014Z,0.43
2023-04-15T20:38:15.924Z,0.40
2023-04-15T20:40:46.948Z,0.40
2023-04-15T20:43:16.313Z,0.52
2023-04-15T20:45:53.579Z,0.30
2023-04-15T20:48:27.509Z,0.80
2023-04-15T20:50:55.804Z,0.55
2023-04-15T20:53:29.555Z,0.40
2023-04-15T20:55:57.721Z,0.47
2023-04-15T20:58:28.573Z,0.50
2023-04-15T21:01:09.330Z,0.50
2023-04-15T21:03:38.873Z,0.63
2023-04-15T21:06:09.697Z,0.65
2023-04-15T21:08:36.434Z,0.55
2023-04-15T21:11:03.272Z,0.50
2023-04-15T21:13:29.890Z,0.60
2023-04-15T21:15:56.524Z,0.70
2023-04-15T21:18:36.335Z,0.50
2023-04-15T21:21:13.693Z,0.47
2023-04-15T21:23:44.913Z,0.47
2023-04-15T21:26:51.938Z,0.50
2023-04-15T21:29:14.106Z,0.40
2023-04-15T21:31:59.117Z,0.77
2023-04-15T21:34:38.054Z,0.40
2023-04-15T21:37:54.627Z,0.47
2023-04-15T21:40:16.604Z,0.52
2023-04-15T21:43:03.293Z,0.35
2023-04-15T21:45:39.718Z,0.50
2023-04-15T21:48:29.156Z,0.50
2023-04-15T21:51:09.011Z,0.53
2023-04-15T21:53:36.179Z,0.50
2023-04-15T21:56:13.355Z,0.50
2023-04-15T21:58:41.562Z,0.50
2023-04-15T22:01:19.809Z,0.50
2023-04-15T22:04:16.218Z,1.13
2023-04-15T22:07:07.907Z,0.70
2023-04-15T22:12:45.487Z,0.60
2023-04-15T22:15:14.075Z,0.60
2023-04-15T22:17:42.838Z,0.43
2023-04-15T22:20:17.076Z,0.60
2023-04-15T22:22:44.876Z,0.60
2023-04-15T22:25:13.823Z,0.40
2023-04-15T22:28:01.529Z,0.70
2023-04-15T22:30:44.901Z,0.67
2023-04-15T22:34:08.577Z,0.40
2023-04-15T22:39:10.534Z,0.60
2023-04-15T22:41:37.208Z,0.63
2023-04-15T22:44:03.784Z,0.80
2023-04-15T22:46:30.493Z,0.75
2023-04-15T22:48:57.158Z,0.90
2023-04-15T22:51:26.948Z,1.30
2023-04-15T22:53:54.341Z,1.35
2023-04-15T22:56:22.231Z,1.33
2023-04-15T22:58:49.438Z,1.48
2023-04-15T23:01:17.612Z,1.30
2023-04-15T23:03:57.178Z,1.27
2023-04-15T23:06:31.225Z,1.13
2023-04-15T23:08:57.665Z,1.00
2023-04-15T23:11:24.210Z,0.75
2023-04-15T23:13:50.749Z,0.90
2023-04-15T23:16:17.432Z,1.20
2023-04-15T23:18:44.001Z,1.08
2023-04-15T23:21:10.504Z,1.00
2023-04-15T23:23:36.989Z,0.90
2023-04-15T23:26:04.229Z,1.40
2023-04-15T23:28:30.948Z,0.70
2023-04-15T23:31:00.321Z,0.73
2023-04-15T23:33:27.679Z,0.87
2023-04-15T23:35:54.185Z,0.73
2023-04-15T23:38:20.720Z,1.10
2023-04-15T23:40:47.211Z,0.95
2023-04-15T23:43:13.659Z,1.15
2023-04-15T23:45:40.240Z,1.07
2023-04-15T23:48:06.960Z,1.15
2023-04-15T23:50:33.536Z,1.00
2023-04-15T23:53:00.162Z,1.05
2023-04-15T23:55:26.677Z,1.20
2023-04-15T23:57:53.179Z,1.20
